Time;durP1;ratioP1;P1;durP2;ratioP2;P2;SDS_P1;SDS_P2;PMS_P1;PMS_P2;Temp;Humidity;BMP_temperature;BMP_pressure;BME280_temperature;BME280_humidity;BME280_pressure;Samples;Min_cycle;Max_cycle;Signal;HPM_P1;HPM_P2
2022/01/28 00:01:22;;;;;;;13.85;2.03;;;;;;;;;;5019813;28;92617;-78
2022/01/28 00:03:48;;;;;;;16.20;2.22;;;;;;;;;;5016707;28;92285;-80
2022/01/28 00:06:15;;;;;;;20.88;2.42;;;;;;;;;;5016626;28;92649;-79
2022/01/28 00:08:42;;;;;;;16.45;2.33;;;;;;;;;;5016332;28;92939;-78
2022/01/28 00:11:10;;;;;;;11.98;2.30;;;;;;;;;;5016408;28;92152;-80
2022/01/28 00:13:40;;;;;;;16.90;2.63;;;;;;;;;;5017021;28;93679;-78
2022/01/28 00:38:02;;;;;;;19.52;2.58;;;;;;;;;;5001320;28;96205;-79
2022/01/28 00:40:30;;;;;;;15.00;2.40;;;;;;;;;;5002183;28;91629;-78
2022/01/28 00:42:56;;;;;;;15.55;2.90;;;;;;;;;;5001639;28;95187;-78
2022/01/28 00:45:23;;;;;;;17.13;2.35;;;;;;;;;;5022744;28;93668;-78
2022/01/28 00:47:50;;;;;;;21.17;2.53;;;;;;;;;;5017937;28;94881;-78
2022/01/28 00:50:16;;;;;;;10.18;2.05;;;;;;;;;;5003296;28;92649;-79
2022/01/28 00:52:42;;;;;;;14.95;2.25;;;;;;;;;;5020923;28;92374;-78
2022/01/28 00:55:09;;;;;;;13.60;2.53;;;;;;;;;;5021818;28;92423;-79
2022/01/28 00:57:35;;;;;;;16.63;3.10;;;;;;;;;;5022629;28;93581;-79
2022/01/28 01:00:03;;;;;;;23.52;2.40;;;;;;;;;;5020864;28;92343;-78
2022/01/28 01:02:29;;;;;;;19.33;2.70;;;;;;;;;;5019397;28;92961;-79
2022/01/28 01:04:56;;;;;;;24.42;2.50;;;;;;;;;;5019904;28;92225;-79
2022/01/28 01:07:22;;;;;;;19.48;2.38;;;;;;;;;;5022584;28;92307;-78
2022/01/28 01:09:49;;;;;;;20.63;3.13;;;;;;;;;;5019123;28;93304;-78
2022/01/28 01:12:19;;;;;;;17.10;2.20;;;;;;;;;;5017560;28;94699;-77
2022/01/28 01:14:46;;;;;;;21.83;2.15;;;;;;;;;;5001185;28;95447;-79
2022/01/28 01:19:49;;;;;;;22.92;2.67;;;;;;;;;;5001085;28;92384;-79
2022/01/28 01:22:16;;;;;;;13.70;2.15;;;;;;;;;;5000982;28;95489;-78
2022/01/28 01:24:51;;;;;;;15.20;1.98;;;;;;;;;;5019007;28;93082;-77
2022/01/28 01:27:20;;;;;;;13.48;2.90;;;;;;;;;;5019044;28;92307;-79
2022/01/28 01:29:47;;;;;;;18.58;2.40;;;;;;;;;;5004499;28;93276;-79
2022/01/28 01:32:16;;;;;;;19.20;3.30;;;;;;;;;;5000874;28;93380;-78
2022/01/28 01:34:43;;;;;;;17.33;2.20;;;;;;;;;;5018938;28;92908;-79
2022/01/28 01:37:10;;;;;;;7.55;1.58;;;;;;;;;;5017033;28;95507;-78
2022/01/28 01:39:38;;;;;;;21.85;2.33;;;;;;;;;;5000953;28;92280;-77
2022/01/28 01:42:25;;;;;;;13.80;2.38;;;;;;;;;;5017849;28;92845;-78
2022/01/28 01:53:13;;;;;;;22.17;2.90;;;;;;;;;;4921075;28;93311;-78
2022/01/28 01:55:40;;;;;;;16.58;1.90;;;;;;;;;;4918931;28;92911;-79
2022/01/28 01:58:07;;;;;;;12.50;1.52;;;;;;;;;;4965174;28;93103;-78
2022/01/28 02:00:33;;;;;;;10.98;2.05;;;;;;;;;;5018324;28;92300;-79
2022/01/28 02:02:59;;;;;;;10.63;1.95;;;;;;;;;;5016258;28;94742;-78
2022/01/28 02:05:26;;;;;;;13.27;2.58;;;;;;;;;;5018187;28;93877;-78
2022/01/28 02:07:52;;;;;;;12.15;2.50;;;;;;;;;;4983766;28;92761;-78
2022/01/28 02:10:18;;;;;;;7.28;1.35;;;;;;;;;;5018124;28;93483;-78
2022/01/28 02:12:45;;;;;;;18.02;2.53;;;;;;;;;;5018200;28;93831;-80
2022/01/28 02:15:11;;;;;;;8.30;2.00;;;;;;;;;;5020808;28;92228;-81
2022/01/28 02:17:37;;;;;;;11.70;1.90;;;;;;;;;;5017599;28;93468;-79
2022/01/28 02:20:07;;;;;;;9.90;1.73;;;;;;;;;;5018499;28;91536;-78
2022/01/28 02:22:34;;;;;;;13.40;1.92;;;;;;;;;;5018181;28;92419;-79
2022/01/28 02:25:01;;;;;;;17.40;2.33;;;;;;;;;;5017877;28;93978;-78
2022/01/28 02:27:30;;;;;;;16.10;2.00;;;;;;;;;;5016678;28;94949;-79
2022/01/28 02:29:57;;;;;;;11.82;1.77;;;;;;;;;;4999673;28;98245;-79
2022/01/28 02:32:23;;;;;;;12.13;1.48;;;;;;;;;;5017620;28;94075;-79
2022/01/28 02:34:50;;;;;;;12.85;1.75;;;;;;;;;;5021037;28;92185;-78
2022/01/28 02:37:16;;;;;;;16.05;1.80;;;;;;;;;;4999671;28;95264;-79
2022/01/28 02:39:43;;;;;;;10.43;1.85;;;;;;;;;;5017907;28;92465;-80
2022/01/28 02:42:19;;;;;;;12.38;2.63;;;;;;;;;;5017984;28;92449;-79
2022/01/28 02:44:52;;;;;;;15.57;2.00;;;;;;;;;;5017655;28;92869;-80
2022/01/28 02:47:30;;;;;;;9.80;1.67;;;;;;;;;;5017877;28;92143;-79
2022/01/28 02:49:56;;;;;;;18.48;2.20;;;;;;;;;;5020072;28;92366;-79
2022/01/28 02:52:33;;;;;;;12.88;2.10;;;;;;;;;;5016666;28;96024;-79
2022/01/28 02:55:07;;;;;;;9.88;1.83;;;;;;;;;;5020826;28;92311;-80
2022/01/28 02:57:37;;;;;;;12.93;2.67;;;;;;;;;;5021902;28;93694;-78
2022/01/28 03:00:04;;;;;;;13.63;2.10;;;;;;;;;;4999815;28;92274;-79
2022/01/28 03:02:30;;;;;;;18.67;2.13;;;;;;;;;;4999940;28;93463;-78
2022/01/28 03:07:42;;;;;;;10.15;1.60;;;;;;;;;;4999200;28;92386;-77
2022/01/28 03:13:01;;;;;;;15.20;2.17;;;;;;;;;;5017144;28;93607;-78
2022/01/28 03:15:25;;;;;;;14.20;2.20;;;;;;;;;;5016964;28;92402;-79
2022/01/28 03:18:06;;;;;;;17.73;2.50;;;;;;;;;;5015559;28;94767;-78
2022/01/28 03:20:40;;;;;;;19.77;2.38;;;;;;;;;;5002813;28;93733;-79
2022/01/28 03:23:08;;;;;;;21.27;3.13;;;;;;;;;;5017042;28;93645;-78
2022/01/28 03:25:36;;;;;;;19.05;2.08;;;;;;;;;;5017068;28;93808;-80
2022/01/28 03:28:03;;;;;;;15.00;2.33;;;;;;;;;;5017185;28;92312;-80
2022/01/28 03:30:29;;;;;;;14.25;2.03;;;;;;;;;;4999470;28;93333;-79
2022/01/28 03:32:55;;;;;;;13.27;2.75;;;;;;;;;;5016938;28;94173;-78
2022/01/28 03:35:26;;;;;;;12.70;2.10;;;;;;;;;;5017630;28;91490;-79
2022/01/28 03:37:59;;;;;;;20.20;2.28;;;;;;;;;;5017096;28;92737;-78
2022/01/28 03:40:27;;;;;;;13.23;1.98;;;;;;;;;;5016669;28;93112;-79
2022/01/28 03:42:53;;;;;;;20.10;3.33;;;;;;;;;;5018533;28;94763;-79
2022/01/28 03:45:19;;;;;;;21.17;2.13;;;;;;;;;;5016553;28;93661;-80
2022/01/28 03:47:46;;;;;;;22.17;2.13;;;;;;;;;;5016811;28;92420;-79
2022/01/28 03:50:12;;;;;;;11.07;2.00;;;;;;;;;;5016829;28;93048;-79
2022/01/28 03:52:39;;;;;;;22.33;2.55;;;;;;;;;;5016467;28;94170;-78
2022/01/28 03:55:05;;;;;;;12.73;2.10;;;;;;;;;;5016617;28;92423;-79
2022/01/28 03:57:32;;;;;;;13.13;2.08;;;;;;;;;;5016454;28;93790;-80
2022/01/28 03:59:58;;;;;;;14.95;2.05;;;;;;;;;;4999602;28;93897;-79
2022/01/28 04:02:28;;;;;;;16.17;2.65;;;;;;;;;;4981091;28;92505;-79
2022/01/28 04:12:52;;;;;;;13.40;2.65;;;;;;;;;;5019526;28;95369;-80
2022/01/28 04:16:16;;;;;;;17.77;2.08;;;;;;;;;;5020415;28;92354;-79
2022/01/28 04:18:11;;;;;;;14.23;2.25;;;;;;;;;;4999661;28;95919;-79
2022/01/28 04:20:37;;;;;;;15.60;2.13;;;;;;;;;;5019163;28;93444;-81
2022/01/28 04:23:04;;;;;;;9.02;1.98;;;;;;;;;;5019899;28;92191;-78
2022/01/28 04:25:30;;;;;;;7.97;1.95;;;;;;;;;;5023323;28;93659;-78
2022/01/28 04:27:56;;;;;;;16.10;2.03;;;;;;;;;;5019774;28;92238;-78
2022/01/28 04:30:23;;;;;;;12.13;2.78;;;;;;;;;;4985370;28;96542;-79
2022/01/28 04:32:51;;;;;;;15.52;2.00;;;;;;;;;;5017836;28;95472;-79
2022/01/28 04:35:18;;;;;;;16.02;2.97;;;;;;;;;;5019158;28;92249;-80
2022/01/28 04:40:15;;;;;;;11.32;1.98;;;;;;;;;;5019616;28;93025;-79
2022/01/28 04:43:00;;;;;;;18.70;2.10;;;;;;;;;;5001604;28;92339;-78
2022/01/28 04:45:38;;;;;;;12.63;2.45;;;;;;;;;;5019693;28;92910;-80
2022/01/28 04:48:26;;;;;;;19.67;1.83;;;;;;;;;;5020692;28;93583;-79
2022/01/28 04:56:12;;;;;;;10.07;2.00;;;;;;;;;;5018731;28;92333;-80
2022/01/28 04:58:54;;;;;;;16.10;2.42;;;;;;;;;;4982797;28;95757;-79
2022/01/28 05:01:46;;;;;;;;;;;;;;;;;;5019330;28;93475;-80
2022/01/28 05:04:25;;;;;;;8.85;2.03;;;;;;;;;;5018106;28;115502;-79
2022/01/28 05:27:15;;;;;;;23.23;2.60;;;;;;;;;;5019502;28;95206;-81
2022/01/28 05:29:42;;;;;;;10.80;1.98;;;;;;;;;;5022212;28;92720;-79
2022/01/28 05:32:09;;;;;;;16.35;1.85;;;;;;;;;;5022318;28;92256;-78
2022/01/28 05:34:37;;;;;;;16.13;2.03;;;;;;;;;;5024574;28;93687;-78
2022/01/28 05:37:03;;;;;;;18.08;2.25;;;;;;;;;;5004730;28;92416;-78
2022/01/28 05:39:30;;;;;;;14.10;1.85;;;;;;;;;;5022069;28;93361;-78
2022/01/28 05:41:56;;;;;;;17.42;2.20;;;;;;;;;;5004856;28;93297;-78
2022/01/28 05:44:23;;;;;;;18.38;1.95;;;;;;;;;;5001445;28;92323;-78
2022/01/28 05:46:50;;;;;;;16.27;2.45;;;;;;;;;;5019072;28;93541;-78
2022/01/28 05:49:16;;;;;;;12.20;2.10;;;;;;;;;;4998955;28;98515;-78
2022/01/28 05:51:43;;;;;;;15.50;2.45;;;;;;;;;;5019193;28;92371;-79
2022/01/28 05:54:10;;;;;;;12.95;1.83;;;;;;;;;;5018011;28;93221;-79
2022/01/28 05:56:36;;;;;;;15.23;2.00;;;;;;;;;;5021655;28;93189;-79
2022/01/28 05:59:03;;;;;;;14.48;1.95;;;;;;;;;;5018559;28;93372;-78
2022/01/28 06:01:29;;;;;;;17.52;2.28;;;;;;;;;;5018355;28;93043;-79
2022/01/28 06:03:56;;;;;;;15.90;2.35;;;;;;;;;;5018694;28;92329;-77
2022/01/28 06:06:23;;;;;;;15.25;1.92;;;;;;;;;;5019024;28;93157;-78
2022/01/28 06:08:51;;;;;;;9.50;1.77;;;;;;;;;;5017789;28;93813;-77
2022/01/28 06:11:18;;;;;;;15.85;1.80;;;;;;;;;;5018306;28;92201;-77
2022/01/28 06:13:44;;;;;;;19.65;3.35;;;;;;;;;;5016864;28;94672;-78
2022/01/28 06:16:12;;;;;;;13.23;2.13;;;;;;;;;;4983871;28;94636;-79
2022/01/28 06:18:39;;;;;;;22.73;1.92;;;;;;;;;;5021496;28;92536;-77
2022/01/28 06:21:05;;;;;;;18.42;2.13;;;;;;;;;;5000506;28;93708;-79
2022/01/28 06:23:32;;;;;;;10.20;2.15;;;;;;;;;;5017631;28;92393;-78
2022/01/28 06:25:59;;;;;;;16.75;2.22;;;;;;;;;;5018326;28;92432;-78
2022/01/28 06:28:29;;;;;;;13.70;1.90;;;;;;;;;;5017437;28;93951;-78
2022/01/28 06:30:56;;;;;;;12.23;1.90;;;;;;;;;;5018645;28;91537;-78
2022/01/28 06:33:23;;;;;;;20.58;2.53;;;;;;;;;;5017938;28;92897;-78
2022/01/28 06:35:49;;;;;;;11.57;1.70;;;;;;;;;;4999150;28;94478;-79
2022/01/28 06:38:15;;;;;;;16.00;2.20;;;;;;;;;;5019634;28;94935;-78
2022/01/28 06:40:42;;;;;;;12.05;1.63;;;;;;;;;;5017713;28;94029;-79
2022/01/28 06:43:09;;;;;;;23.52;2.70;;;;;;;;;;5017834;28;92451;-78
2022/01/28 06:45:36;;;;;;;15.20;2.08;;;;;;;;;;5000334;28;93477;-78
2022/01/28 06:48:03;;;;;;;13.10;2.25;;;;;;;;;;5017536;28;93503;-79
2022/01/28 06:50:29;;;;;;;15.32;2.33;;;;;;;;;;5017343;28;92222;-79
2022/01/28 06:52:55;;;;;;;12.63;1.48;;;;;;;;;;4996708;28;94037;-78
2022/01/28 06:55:22;;;;;;;12.50;1.88;;;;;;;;;;4997999;28;92947;-78
2022/01/28 06:57:48;;;;;;;15.27;1.92;;;;;;;;;;4997644;28;93074;-78
2022/01/28 07:00:15;;;;;;;14.65;2.22;;;;;;;;;;5000098;28;93725;-78
2022/01/28 07:02:44;;;;;;;21.60;2.00;;;;;;;;;;4995658;28;94785;-78
2022/01/28 07:05:11;;;;;;;14.25;2.15;;;;;;;;;;4996868;28;95701;-78
2022/01/28 07:07:37;;;;;;;14.02;2.15;;;;;;;;;;4997470;28;94127;-78
2022/01/28 07:10:04;;;;;;;18.10;2.78;;;;;;;;;;4996505;28;92661;-78
2022/01/28 07:12:30;;;;;;;27.50;2.35;;;;;;;;;;4997704;28;93797;-79
2022/01/28 07:14:57;;;;;;;16.23;3.00;;;;;;;;;;4997558;28;94000;-78
2022/01/28 07:17:23;;;;;;;14.90;2.40;;;;;;;;;;4996756;28;92359;-80
2022/01/28 07:19:49;;;;;;;15.40;2.25;;;;;;;;;;4996618;28;93425;-78
2022/01/28 07:22:16;;;;;;;12.52;1.83;;;;;;;;;;4998773;28;94582;-79
2022/01/28 07:24:42;;;;;;;12.52;2.00;;;;;;;;;;4995766;28;96178;-78
2022/01/28 07:27:08;;;;;;;18.05;2.35;;;;;;;;;;4995160;28;95747;-78
2022/01/28 07:29:35;;;;;;;15.18;1.85;;;;;;;;;;4995861;28;92361;-79
2022/01/28 07:32:02;;;;;;;18.08;1.75;;;;;;;;;;4997213;28;93571;-79
2022/01/28 07:34:28;;;;;;;15.80;1.90;;;;;;;;;;4996545;28;93638;-78
2022/01/28 07:36:54;;;;;;;18.00;1.80;;;;;;;;;;4996965;28;92433;-79
2022/01/28 07:39:22;;;;;;;17.80;2.47;;;;;;;;;;4998542;28;92418;-78
2022/01/28 07:41:48;;;;;;;13.75;2.00;;;;;;;;;;5000420;28;93733;-78
2022/01/28 07:44:15;;;;;;;11.00;1.67;;;;;;;;;;5004088;28;91534;-80
2022/01/28 07:46:41;;;;;;;14.13;1.98;;;;;;;;;;4948452;28;94124;-79
2022/01/28 07:49:13;;;;;;;13.27;2.33;;;;;;;;;;5000487;28;92210;-79
2022/01/28 07:51:41;;;;;;;21.35;2.20;;;;;;;;;;4997389;28;94875;-77
2022/01/28 07:54:08;;;;;;;11.57;2.20;;;;;;;;;;5000116;28;93512;-78
2022/01/28 07:56:35;;;;;;;14.60;2.33;;;;;;;;;;4999408;28;92789;-78
2022/01/28 07:59:01;;;;;;;21.40;2.35;;;;;;;;;;4999027;28;95698;-79
2022/01/28 08:01:28;;;;;;;8.60;2.17;;;;;;;;;;4999616;28;93881;-78
2022/01/28 08:03:54;;;;;;;16.63;2.30;;;;;;;;;;4999282;28;92412;-77
2022/01/28 08:06:21;;;;;;;12.25;2.20;;;;;;;;;;5003133;28;93484;-76
2022/01/28 08:08:47;;;;;;;16.67;1.98;;;;;;;;;;5000654;28;91567;-74
2022/01/28 08:11:14;;;;;;;11.38;2.63;;;;;;;;;;4999967;28;92615;-75
2022/01/28 08:13:40;;;;;;;14.57;2.17;;;;;;;;;;4999865;28;93521;-75
2022/01/28 08:16:07;;;;;;;15.07;2.60;;;;;;;;;;4997985;28;94744;-75
2022/01/28 08:18:33;;;;;;;22.08;2.30;;;;;;;;;;4999919;28;95017;-75
2022/01/28 08:21:00;;;;;;;15.05;2.28;;;;;;;;;;4998552;28;94705;-75
2022/01/28 08:23:27;;;;;;;21.73;2.47;;;;;;;;;;4999791;28;92354;-75
2022/01/28 08:25:55;;;;;;;14.57;2.03;;;;;;;;;;4999981;28;92789;-75
2022/01/28 08:28:21;;;;;;;9.10;1.75;;;;;;;;;;5001755;28;93513;-76
2022/01/28 08:30:48;;;;;;;18.73;1.85;;;;;;;;;;4998601;28;94901;-75
2022/01/28 08:33:14;;;;;;;13.27;1.92;;;;;;;;;;5000044;28;93010;-76
2022/01/28 08:35:41;;;;;;;22.20;2.38;;;;;;;;;;4999853;28;92144;-74
2022/01/28 08:38:16;;;;;;;16.15;2.03;;;;;;;;;;4999735;28;93622;-75
2022/01/28 08:40:43;;;;;;;16.92;2.17;;;;;;;;;;4997800;28;96054;-74
2022/01/28 08:43:09;;;;;;;14.40;2.03;;;;;;;;;;4998927;28;92249;-73
2022/01/28 08:45:36;;;;;;;16.20;2.10;;;;;;;;;;4998624;28;92520;-75
2022/01/28 08:48:02;;;;;;;17.30;2.35;;;;;;;;;;5002291;28;93632;-74
2022/01/28 08:50:29;;;;;;;16.98;2.25;;;;;;;;;;4999234;28;93752;-74
2022/01/28 08:52:55;;;;;;;9.82;2.40;;;;;;;;;;4998043;28;92909;-74
2022/01/28 08:55:22;;;;;;;14.07;2.60;;;;;;;;;;4999350;28;92360;-75
2022/01/28 08:57:48;;;;;;;18.73;2.65;;;;;;;;;;4999308;28;93486;-75
2022/01/28 09:00:25;;;;;;;21.30;2.20;;;;;;;;;;4999037;28;93577;-79
2022/01/28 09:03:06;;;;;;;14.25;2.15;;;;;;;;;;4998728;28;92490;-84
2022/01/28 09:05:37;;;;;;;16.75;1.73;;;;;;;;;;4996783;28;96228;-79
2022/01/28 09:08:07;;;;;;;14.52;2.33;;;;;;;;;;4998207;28;93211;-77
2022/01/28 09:10:43;;;;;;;16.67;2.85;;;;;;;;;;5001309;28;92447;-76
2022/01/28 09:13:21;;;;;;;11.13;2.10;;;;;;;;;;4999008;28;93214;-77
2022/01/28 09:15:52;;;;;;;9.35;2.38;;;;;;;;;;4999391;28;92273;-75
2022/01/28 09:18:19;;;;;;;12.02;2.03;;;;;;;;;;4998969;28;93284;-76
2022/01/28 09:20:46;;;;;;;10.32;2.47;;;;;;;;;;4998319;28;93592;-77
2022/01/28 09:23:13;;;;;;;14.80;2.33;;;;;;;;;;4999396;28;91643;-77
2022/01/28 09:25:39;;;;;;;16.60;2.35;;;;;;;;;;4998974;28;92670;-76
2022/01/28 09:28:06;;;;;;;17.30;2.25;;;;;;;;;;4998937;28;93105;-76
2022/01/28 09:30:33;;;;;;;11.40;2.20;;;;;;;;;;4997455;28;94802;-75
2022/01/28 09:32:59;;;;;;;17.17;2.10;;;;;;;;;;5001359;28;95865;-77
2022/01/28 09:35:25;;;;;;;16.13;2.03;;;;;;;;;;4998316;28;92297;-78
2022/01/28 09:37:52;;;;;;;18.42;2.33;;;;;;;;;;4997776;28;94491;-77
2022/01/28 09:40:19;;;;;;;18.95;2.72;;;;;;;;;;4998701;28;94196;-78
2022/01/28 09:42:47;;;;;;;21.00;2.75;;;;;;;;;;4997577;28;94117;-78
2022/01/28 09:45:16;;;;;;;18.27;2.88;;;;;;;;;;4998585;28;92888;-79
2022/01/28 09:47:46;;;;;;;9.00;1.88;;;;;;;;;;4998568;28;92884;-78
2022/01/28 09:50:13;;;;;;;10.57;2.30;;;;;;;;;;4997754;28;93323;-78
2022/01/28 09:52:39;;;;;;;15.02;2.15;;;;;;;;;;4998264;28;93406;-78
2022/01/28 09:55:06;;;;;;;14.15;2.58;;;;;;;;;;4999392;28;99109;-77
2022/01/28 09:57:33;;;;;;;15.82;3.20;;;;;;;;;;4998867;28;95881;-79
2022/01/28 09:59:59;;;;;;;12.25;2.03;;;;;;;;;;4998012;28;96056;-75
2022/01/28 10:02:44;;;;;;;15.85;2.38;;;;;;;;;;4998519;28;92160;-78
2022/01/28 10:05:22;;;;;;;14.18;2.78;;;;;;;;;;4999110;28;92932;-76
2022/01/28 10:08:00;;;;;;;17.67;2.65;;;;;;;;;;5000090;28;93855;-76
2022/01/28 10:10:39;;;;;;;13.18;2.38;;;;;;;;;;5000509;28;92373;-78
2022/01/28 10:13:15;;;;;;;16.23;2.58;;;;;;;;;;5000419;28;93456;-76
2022/01/28 10:15:51;;;;;;;14.50;2.53;;;;;;;;;;4996610;28;95080;-77
2022/01/28 10:18:18;;;;;;;20.00;2.60;;;;;;;;;;5001430;28;92296;-76
2022/01/28 10:20:45;;;;;;;20.25;2.30;;;;;;;;;;4996294;28;96005;-76
2022/01/28 10:23:12;;;;;;;14.38;2.70;;;;;;;;;;4997417;28;92351;-71
2022/01/28 10:25:42;;;;;;;13.75;2.47;;;;;;;;;;4998188;28;92873;-78
2022/01/28 10:28:10;;;;;;;22.25;2.80;;;;;;;;;;4998187;28;93168;-77
2022/01/28 10:30:42;;;;;;;14.23;2.30;;;;;;;;;;4998018;28;92286;-79
2022/01/28 10:33:21;;;;;;;16.95;2.58;;;;;;;;;;4997996;28;92855;-73
2022/01/28 10:35:48;;;;;;;50.25;23.85;;;;;;;;;;4996706;28;93536;-75
2022/01/28 10:38:34;;;;;;;22.88;6.05;;;;;;;;;;4997881;28;91468;-77
2022/01/28 10:41:13;;;;;;;18.55;2.88;;;;;;;;;;5000749;28;92362;-79
2022/01/28 10:43:44;;;;;;;16.33;2.70;;;;;;;;;;4997673;28;92240;-76
2022/01/28 10:46:10;;;;;;;20.13;3.20;;;;;;;;;;4994767;28;94656;-76
2022/01/28 10:49:02;;;;;;;17.52;2.65;;;;;;;;;;4997152;28;93585;-76
2022/01/28 10:51:43;;;;;;;22.98;2.70;;;;;;;;;;5003183;28;92272;-77
2022/01/28 10:54:18;;;;;;;17.65;2.15;;;;;;;;;;5017540;28;93526;-76
2022/01/28 10:56:53;;;;;;;19.33;4.78;;;;;;;;;;5016760;28;93580;-75
2022/01/28 10:59:21;;;;;;;19.77;2.50;;;;;;;;;;5017334;28;92421;-76
2022/01/28 11:01:48;;;;;;;13.98;2.17;;;;;;;;;;5020316;28;93571;-76
2022/01/28 11:04:15;;;;;;;21.42;2.25;;;;;;;;;;5017993;28;91375;-77
2022/01/28 11:06:42;;;;;;;13.32;2.08;;;;;;;;;;5017487;28;92723;-77
2022/01/28 11:09:09;;;;;;;17.63;2.70;;;;;;;;;;5016991;28;93664;-76
2022/01/28 11:11:37;;;;;;;11.63;2.17;;;;;;;;;;5015872;28;94830;-75
2022/01/28 11:14:04;;;;;;;15.07;3.00;;;;;;;;;;5017507;28;94069;-75
2022/01/28 11:16:31;;;;;;;9.82;1.77;;;;;;;;;;5017140;28;93436;-76
2022/01/28 11:19:28;;;;;;;16.58;2.75;;;;;;;;;;5017278;28;92399;-81
2022/01/28 11:22:09;;;;;;;12.43;2.05;;;;;;;;;;5000469;28;93233;-72
2022/01/28 11:24:54;;;;;;;17.23;2.58;;;;;;;;;;5002449;28;93063;-76
2022/01/28 11:27:31;;;;;;;12.48;3.00;;;;;;;;;;5017261;28;92683;-76
2022/01/28 11:30:15;;;;;;;12.95;2.33;;;;;;;;;;5017074;28;92764;-76
2022/01/28 11:32:51;;;;;;;11.10;2.03;;;;;;;;;;5016945;28;92270;-77
2022/01/28 11:35:21;;;;;;;13.18;1.85;;;;;;;;;;4999437;28;93439;-78
2022/01/28 11:37:48;;;;;;;21.98;3.47;;;;;;;;;;5015174;28;95588;-76
2022/01/28 11:40:15;;;;;;;11.38;1.90;;;;;;;;;;4999250;28;92391;-75
2022/01/28 11:42:42;;;;;;;16.88;2.55;;;;;;;;;;5016253;28;93151;-76
2022/01/28 11:45:09;;;;;;;8.90;2.53;;;;;;;;;;5016960;28;93111;-75
2022/01/28 11:47:37;;;;;;;14.20;1.80;;;;;;;;;;5020001;28;92299;-76
2022/01/28 11:50:11;;;;;;;18.90;1.83;;;;;;;;;;5016637;28;92977;-76
2022/01/28 11:52:42;;;;;;;10.02;1.92;;;;;;;;;;5016519;28;92358;-75
2022/01/28 11:55:14;;;;;;;14.10;2.23;;;;;;;;;;5016787;28;93631;-71
2022/01/28 11:57:50;;;;;;;16.20;2.17;;;;;;;;;;4999064;28;93683;-76
2022/01/28 12:00:18;;;;;;;9.77;2.35;;;;;;;;;;5016633;28;92401;-76
2022/01/28 12:02:46;;;;;;;12.50;2.15;;;;;;;;;;5013792;28;94828;-75
2022/01/28 12:05:23;;;;;;;8.02;1.67;;;;;;;;;;4998276;28;96247;-75
2022/01/28 12:07:49;;;;;;;15.45;1.55;;;;;;;;;;5016531;28;92294;-75
2022/01/28 12:10:17;;;;;;;7.15;1.90;;;;;;;;;;5002234;28;93843;-76
2022/01/28 12:12:45;;;;;;;16.63;2.13;;;;;;;;;;5016666;28;92368;-76
2022/01/28 12:15:14;;;;;;;11.35;1.75;;;;;;;;;;5016706;28;93270;-76
2022/01/28 12:17:42;;;;;;;8.00;1.83;;;;;;;;;;5016417;28;93152;-75
2022/01/28 12:20:37;;;;;;;15.20;1.95;;;;;;;;;;5017055;28;91412;-77
2022/01/28 12:23:22;;;;;;;10.73;1.67;;;;;;;;;;5016443;28;92674;-77
2022/01/28 12:25:50;;;;;;;19.88;2.17;;;;;;;;;;5018276;28;93817;-75
2022/01/28 12:28:27;;;;;;;10.98;1.45;;;;;;;;;;5018178;28;94596;-75
2022/01/28 12:30:58;;;;;;;11.27;1.55;;;;;;;;;;5019889;28;95293;-75
2022/01/28 12:33:26;;;;;;;7.85;1.30;;;;;;;;;;5022807;28;93273;-77
2022/01/28 12:35:55;;;;;;;10.57;1.70;;;;;;;;;;5019558;28;93394;-75
2022/01/28 12:38:24;;;;;;;11.27;1.60;;;;;;;;;;5019589;28;94044;-78
2022/01/28 12:40:53;;;;;;;10.48;1.85;;;;;;;;;;5019675;28;92260;-76
2022/01/28 12:43:21;;;;;;;13.68;1.38;;;;;;;;;;5019297;28;93382;-75
2022/01/28 12:45:56;;;;;;;14.40;2.58;;;;;;;;;;5020027;28;93123;-76
2022/01/28 12:48:22;;;;;;;12.05;1.88;;;;;;;;;;5019384;28;92786;-75
2022/01/28 12:50:49;;;;;;;10.32;2.05;;;;;;;;;;5019157;28;93782;-77
2022/01/28 12:53:28;;;;;;;7.40;1.52;;;;;;;;;;5017535;28;96070;-77
2022/01/28 12:55:54;;;;;;;7.45;1.20;;;;;;;;;;5021753;28;92307;-77
2022/01/28 12:58:34;;;;;;;9.45;1.55;;;;;;;;;;5001160;28;94521;-77
2022/01/28 13:01:05;;;;;;;5.35;1.33;;;;;;;;;;5001787;28;92771;-76
2022/01/28 13:03:38;;;;;;;9.23;2.30;;;;;;;;;;5019081;28;93420;-75
2022/01/28 13:06:23;;;;;;;10.65;1.63;;;;;;;;;;5018601;28;93959;-77
2022/01/28 13:08:51;;;;;;;15.70;2.20;;;;;;;;;;5019189;28;92381;-75
2022/01/28 13:11:17;;;;;;;13.35;1.67;;;;;;;;;;5019917;28;92851;-76
2022/01/28 13:13:52;;;;;;;6.70;1.48;;;;;;;;;;5019113;28;93693;-77
2022/01/28 13:16:29;;;;;;;8.50;1.88;;;;;;;;;;5021897;28;93214;-77
2022/01/28 13:18:56;;;;;;;16.45;2.03;;;;;;;;;;5016857;28;96266;-76
2022/01/28 13:21:23;;;;;;;11.30;1.77;;;;;;;;;;5018983;28;92381;-77
2022/01/28 13:24:02;;;;;;;10.77;2.15;;;;;;;;;;5018763;28;93318;-76
2022/01/28 13:26:29;;;;;;;13.10;2.00;;;;;;;;;;5000676;28;97080;-76
2022/01/28 13:29:07;;;;;;;8.90;1.70;;;;;;;;;;5018249;28;92275;-76
2022/01/28 13:31:33;;;;;;;12.77;1.95;;;;;;;;;;5018880;28;93854;-76
2022/01/28 13:34:02;;;;;;;18.10;2.10;;;;;;;;;;5018680;28;93655;-77
2022/01/28 13:36:42;;;;;;;13.25;1.83;;;;;;;;;;5017700;28;92015;-77
2022/01/28 13:39:15;;;;;;;10.75;1.80;;;;;;;;;;5021430;28;92249;-75
2022/01/28 13:41:41;;;;;;;14.05;2.45;;;;;;;;;;5018760;28;93045;-75
2022/01/28 13:44:30;;;;;;;12.30;1.73;;;;;;;;;;5017191;28;94563;-75
2022/01/28 13:46:58;;;;;;;10.00;1.75;;;;;;;;;;5018383;28;94084;-75
2022/01/28 13:49:35;;;;;;;11.23;1.95;;;;;;;;;;5018444;28;92541;-75
2022/01/28 13:52:39;;;;;;;8.98;2.10;;;;;;;;;;5017983;28;92722;-78
2022/01/28 13:55:26;;;;;;;13.45;2.05;;;;;;;;;;5018276;28;93463;-75
2022/01/28 13:57:59;;;;;;;8.57;1.80;;;;;;;;;;5018320;28;92323;-76
2022/01/28 14:00:37;;;;;;;9.98;1.90;;;;;;;;;;5019742;28;92251;-76
2022/01/28 14:03:03;;;;;;;14.77;3.67;;;;;;;;;;5026286;28;92010;-75
2022/01/28 14:05:48;;;;;;;7.35;1.77;;;;;;;;;;5020922;28;92663;-76
2022/01/28 14:08:14;;;;;;;13.10;2.58;;;;;;;;;;5019085;27;94162;-76
2022/01/28 14:10:41;;;;;;;13.63;2.97;;;;;;;;;;5037462;27;96049;-76
2022/01/28 14:13:21;;;;;;;12.02;2.45;;;;;;;;;;5038705;27;95825;-75
2022/01/28 14:16:04;;;;;;;14.50;3.75;;;;;;;;;;5038015;28;93805;-75
2022/01/28 14:18:31;;;;;;;6.65;2.90;;;;;;;;;;5037873;28;92381;-74
2022/01/28 14:20:57;;;;;;;6.78;2.63;;;;;;;;;;5038491;28;93841;-74
2022/01/28 14:23:24;;;;;;;11.15;2.80;;;;;;;;;;5038035;28;92856;-75
2022/01/28 14:25:50;;;;;;;13.55;3.40;;;;;;;;;;5024021;27;92248;-74
2022/01/28 14:30:55;;;;;;;8.57;3.20;;;;;;;;;;5058031;27;94583;-75
2022/01/28 14:33:21;;;;;;;15.05;4.43;;;;;;;;;;5058386;27;93259;-74
2022/01/28 14:35:56;;;;;;;12.15;3.92;;;;;;;;;;5056372;27;96015;-75
2022/01/28 14:38:22;;;;;;;15.20;4.15;;;;;;;;;;5058039;27;92204;-74
2022/01/28 14:40:49;;;;;;;11.27;4.18;;;;;;;;;;5040065;27;94981;-75
2022/01/28 14:43:15;;;;;;;15.55;4.90;;;;;;;;;;5057878;27;94049;-76
2022/01/28 14:45:41;;;;;;;16.75;4.63;;;;;;;;;;5058016;27;92418;-75
2022/01/28 14:48:08;;;;;;;16.10;4.78;;;;;;;;;;5060857;27;93564;-76
2022/01/28 14:50:37;;;;;;;21.90;4.82;;;;;;;;;;5058163;27;92182;-75
2022/01/28 14:53:03;;;;;;;17.00;4.32;;;;;;;;;;5058753;27;92453;-76
2022/01/28 14:55:30;;;;;;;13.38;4.25;;;;;;;;;;5057819;27;93772;-75
2022/01/28 14:57:56;;;;;;;13.18;4.88;;;;;;;;;;5057352;27;92956;-75
2022/01/28 15:00:22;;;;;;;16.70;4.88;;;;;;;;;;5038418;27;94807;-75
2022/01/28 15:02:49;;;;;;;12.10;4.30;;;;;;;;;;5057651;27;93810;-76
2022/01/28 15:05:16;;;;;;;18.92;5.40;;;;;;;;;;5057732;27;92272;-75
2022/01/28 15:07:42;;;;;;;17.48;4.95;;;;;;;;;;5060584;27;93479;-75
2022/01/28 15:10:10;;;;;;;13.55;4.63;;;;;;;;;;5058021;27;92280;-75
2022/01/28 15:12:37;;;;;;;13.00;5.22;;;;;;;;;;5057448;27;93447;-76
2022/01/28 15:15:03;;;;;;;12.32;4.85;;;;;;;;;;5057483;27;93655;-75
2022/01/28 15:17:31;;;;;;;13.95;5.28;;;;;;;;;;5058255;27;91529;-76
2022/01/28 15:19:59;;;;;;;13.27;4.45;;;;;;;;;;5057665;27;92666;-75
2022/01/28 15:22:25;;;;;;;11.93;3.90;;;;;;;;;;5057618;27;93076;-77
2022/01/28 15:24:52;;;;;;;11.90;3.70;;;;;;;;;;5038053;27;94700;-75
2022/01/28 15:27:19;;;;;;;15.80;3.92;;;;;;;;;;5057194;27;95867;-75
2022/01/28 15:30:20;;;;;;;9.75;3.22;;;;;;;;;;5060082;27;93577;-77
2022/01/28 15:35:56;;;;;;;14.20;3.70;;;;;;;;;;5057028;27;93006;-76
2022/01/28 15:38:22;;;;;;;10.18;3.78;;;;;;;;;;5057519;27;92257;-75
2022/01/28 15:40:48;;;;;;;15.60;4.35;;;;;;;;;;5057405;27;92671;-76
2022/01/28 15:43:15;;;;;;;16.95;4.50;;;;;;;;;;5057316;27;92965;-76
2022/01/28 15:45:46;;;;;;;11.73;4.10;;;;;;;;;;5039089;27;92332;-75
2022/01/28 15:48:13;;;;;;;12.88;3.53;;;;;;;;;;5057105;27;92812;-77
2022/01/28 15:50:40;;;;;;;9.32;4.40;;;;;;;;;;5055404;27;94705;-77
2022/01/28 15:53:07;;;;;;;14.73;3.50;;;;;;;;;;5059949;27;94672;-76
2022/01/28 15:55:33;;;;;;;9.73;2.88;;;;;;;;;;5039324;27;92892;-75
2022/01/28 15:58:00;;;;;;;9.85;3.15;;;;;;;;;;5057165;27;92174;-76
2022/01/28 16:00:26;;;;;;;9.35;3.38;;;;;;;;;;5057913;27;92548;-76
2022/01/28 16:02:53;;;;;;;12.13;4.13;;;;;;;;;;5060624;27;92997;-76
2022/01/28 16:05:20;;;;;;;13.63;5.25;;;;;;;;;;5060437;27;92220;-75